sensor_id;sensor_type;location;lat;lon;timestamp;temperature;humidity
6210;DHT22;3138;52.550;13.148;2023-04-24T00:01:00;11.70;1.00
6210;DHT22;3138;52.550;13.148;2023-04-24T00:03:29;11.60;1.00
6210;DHT22;3138;52.550;13.148;2023-04-24T00:05:56;11.60;1.00
6210;DHT22;3138;52.550;13.148;2023-04-24T00:08:24;11.50;1.00
6210;DHT22;3138;52.550;13.148;2023-04-24T00:10:51;11.50;13.60
6210;DHT22;3138;52.550;13.148;2023-04-24T00:13:18;11.50;65.30
6210;DHT22;3138;52.550;13.148;2023-04-24T00:15:45;11.50;99.90
6210;DHT22;3138;52.550;13.148;2023-04-24T00:18:12;11.50;99.90
6210;DHT22;3138;52.550;13.148;2023-04-24T00:20:41;11.40;99.90
6210;DHT22;3138;52.550;13.148;2023-04-24T00:23:09;11.30;99.90
6210;DHT22;3138;52.550;13.148;2023-04-24T00:25:36;11.30;1.00
6210;DHT22;3138;52.550;13.148;2023-04-24T00:28:02;11.20;1.00
6210;DHT22;3138;52.550;13.148;2023-04-24T00:30:29;11.30;1.00
6210;DHT22;3138;52.550;13.148;2023-04-24T00:32:57;11.30;33.60
6210;DHT22;3138;52.550;13.148;2023-04-24T00:35:23;11.30;99.90
6210;DHT22;3138;52.550;13.148;2023-04-24T00:37:52;11.30;99.90
6210;DHT22;3138;52.550;13.148;2023-04-24T00:40:19;11.30;99.90
6210;DHT22;3138;52.550;13.148;2023-04-24T00:42:45;11.30;99.90
6210;DHT22;3138;52.550;13.148;2023-04-24T00:45:12;11.30;99.90
6210;DHT22;3138;52.550;13.148;2023-04-24T00:47:39;11.30;99.90
6210;DHT22;3138;52.550;13.148;2023-04-24T00:50:08;11.40;99.90
6210;DHT22;3138;52.550;13.148;2023-04-24T00:52:36;11.30;99.90
6210;DHT22;3138;52.550;13.148;2023-04-24T00:55:08;11.40;1.00
6210;DHT22;3138;52.550;13.148;2023-04-24T00:57:36;11.40;1.00
6210;DHT22;3138;52.550;13.148;2023-04-24T01:00:04;11.60;1.00
6210;DHT22;3138;52.550;13.148;2023-04-24T01:02:36;11.60;99.90
6210;DHT22;3138;52.550;13.148;2023-04-24T01:05:06;11.70;99.90
6210;DHT22;3138;52.550;13.148;2023-04-24T01:07:34;11.70;99.90
6210;DHT22;3138;52.550;13.148;2023-04-24T01:10:01;11.70;1.00
6210;DHT22;3138;52.550;13.148;2023-04-24T01:12:30;11.70;1.00
6210;DHT22;3138;52.550;13.148;2023-04-24T01:14:57;11.70;1.00
6210;DHT22;3138;52.550;13.148;2023-04-24T01:17:24;11.70;1.00
6210;DHT22;3138;52.550;13.148;2023-04-24T01:19:51;11.80;20.50
6210;DHT22;3138;52.550;13.148;2023-04-24T01:22:20;11.80;99.90
6210;DHT22;3138;52.550;13.148;2023-04-24T01:24:47;11.80;1.00
6210;DHT22;3138;52.550;13.148;2023-04-24T01:27:14;11.80;99.90
6210;DHT22;3138;52.550;13.148;2023-04-24T01:29:41;11.70;99.90
6210;DHT22;3138;52.550;13.148;2023-04-24T01:32:08;11.70;1.00
6210;DHT22;3138;52.550;13.148;2023-04-24T01:34:35;11.70;1.00
6210;DHT22;3138;52.550;13.148;2023-04-24T01:37:02;11.60;1.00
6210;DHT22;3138;52.550;13.148;2023-04-24T01:39:30;11.60;1.00
6210;DHT22;3138;52.550;13.148;2023-04-24T01:41:57;11.50;1.00
6210;DHT22;3138;52.550;13.148;2023-04-24T01:44:24;11.50;1.00
6210;DHT22;3138;52.550;13.148;2023-04-24T01:46:51;11.40;30.70
6210;DHT22;3138;52.550;13.148;2023-04-24T01:49:19;11.40;69.20
6210;DHT22;3138;52.550;13.148;2023-04-24T01:51:46;11.30;99.90
6210;DHT22;3138;52.550;13.148;2023-04-24T01:54:13;11.30;99.90
6210;DHT22;3138;52.550;13.148;2023-04-24T01:56:42;11.10;99.90
6210;DHT22;3138;52.550;13.148;2023-04-24T01:59:10;11.10;99.90
6210;DHT22;3138;52.550;13.148;2023-04-24T02:01:38;11.10;99.90
6210;DHT22;3138;52.550;13.148;2023-04-24T02:04:06;11.10;99.90
6210;DHT22;3138;52.550;13.148;2023-04-24T02:06:33;11.00;1.00
6210;DHT22;3138;52.550;13.148;2023-04-24T02:09:00;11.10;1.00
6210;DHT22;3138;52.550;13.148;2023-04-24T02:11:28;11.00;1.00
6210;DHT22;3138;52.550;13.148;2023-04-24T02:13:56;10.90;1.00
6210;DHT22;3138;52.550;13.148;2023-04-24T02:16:23;10.90;1.00
6210;DHT22;3138;52.550;13.148;2023-04-24T02:18:50;11.00;1.00
6210;DHT22;3138;52.550;13.148;2023-04-24T02:21:17;10.90;1.00
6210;DHT22;3138;52.550;13.148;2023-04-24T02:23:43;11.00;1.00
6210;DHT22;3138;52.550;13.148;2023-04-24T02:26:11;10.90;1.00
6210;DHT22;3138;52.550;13.148;2023-04-24T02:28:37;10.90;1.00
6210;DHT22;3138;52.550;13.148;2023-04-24T02:31:06;10.80;1.00
6210;DHT22;3138;52.550;13.148;2023-04-24T02:33:32;10.90;1.00
6210;DHT22;3138;52.550;13.148;2023-04-24T02:35:59;10.90;1.00
6210;DHT22;3138;52.550;13.148;2023-04-24T02:38:26;10.90;3.80
6210;DHT22;3138;52.550;13.148;2023-04-24T02:40:53;10.80;12.00
6210;DHT22;3138;52.550;13.148;2023-04-24T02:43:20;10.70;9.60
6210;DHT22;3138;52.550;13.148;2023-04-24T02:45:47;10.80;36.50
6210;DHT22;3138;52.550;13.148;2023-04-24T02:48:15;10.90;72.40
6210;DHT22;3138;52.550;13.148;2023-04-24T02:50:42;10.90;85.30
6210;DHT22;3138;52.550;13.148;2023-04-24T02:53:09;10.90;99.90
6210;DHT22;3138;52.550;13.148;2023-04-24T02:55:36;10.80;99.90
6210;DHT22;3138;52.550;13.148;2023-04-24T02:58:03;10.90;99.90
6210;DHT22;3138;52.550;13.148;2023-04-24T03:00:29;10.90;99.90
6210;DHT22;3138;52.550;13.148;2023-04-24T03:02:56;11.00;99.90
6210;DHT22;3138;52.550;13.148;2023-04-24T03:05:24;11.00;99.90
6210;DHT22;3138;52.550;13.148;2023-04-24T03:07:52;11.00;99.90
6210;DHT22;3138;52.550;13.148;2023-04-24T03:10:21;11.00;99.90
6210;DHT22;3138;52.550;13.148;2023-04-24T03:12:49;11.00;99.90
6210;DHT22;3138;52.550;13.148;2023-04-24T03:15:16;11.10;91.40
6210;DHT22;3138;52.550;13.148;2023-04-24T03:17:42;11.10;67.60
6210;DHT22;3138;52.550;13.148;2023-04-24T03:20:09;11.20;31.10
6210;DHT22;3138;52.550;13.148;2023-04-24T03:22:38;11.20;1.00
6210;DHT22;3138;52.550;13.148;2023-04-24T03:25:05;11.20;1.00
6210;DHT22;3138;52.550;13.148;2023-04-24T03:27:33;11.20;1.00
6210;DHT22;3138;52.550;13.148;2023-04-24T03:30:00;11.20;1.00
6210;DHT22;3138;52.550;13.148;2023-04-24T03:32:27;11.20;1.00
6210;DHT22;3138;52.550;13.148;2023-04-24T03:34:54;11.20;1.00
6210;DHT22;3138;52.550;13.148;2023-04-24T03:37:21;11.20;1.00
6210;DHT22;3138;52.550;13.148;2023-04-24T03:39:49;11.10;1.00
6210;DHT22;3138;52.550;13.148;2023-04-24T03:42:16;11.10;1.00
6210;DHT22;3138;52.550;13.148;2023-04-24T03:44:43;11.10;1.00
6210;DHT22;3138;52.550;13.148;2023-04-24T03:47:10;11.20;1.00
6210;DHT22;3138;52.550;13.148;2023-04-24T03:49:36;11.20;1.00
6210;DHT22;3138;52.550;13.148;2023-04-24T03:52:03;11.20;1.00
6210;DHT22;3138;52.550;13.148;2023-04-24T03:54:30;11.20;1.00
6210;DHT22;3138;52.550;13.148;2023-04-24T03:56:58;11.20;1.00
6210;DHT22;3138;52.550;13.148;2023-04-24T03:59:25;11.10;1.00
6210;DHT22;3138;52.550;13.148;2023-04-24T04:01:52;11.20;1.00
6210;DHT22;3138;52.550;13.148;2023-04-24T04:04:19;11.10;1.00
6210;DHT22;3138;52.550;13.148;2023-04-24T04:06:45;11.10;1.00
6210;DHT22;3138;52.550;13.148;2023-04-24T04:09:13;11.10;1.00
6210;DHT22;3138;52.550;13.148;2023-04-24T04:11:40;11.10;1.00
6210;DHT22;3138;52.550;13.148;2023-04-24T04:14:08;11.10;1.00
6210;DHT22;3138;52.550;13.148;2023-04-24T04:16:35;11.10;1.00
6210;DHT22;3138;52.550;13.148;2023-04-24T04:19:03;11.10;1.00
6210;DHT22;3138;52.550;13.148;2023-04-24T04:21:29;11.10;1.00
6210;DHT22;3138;52.550;13.148;2023-04-24T04:23:57;11.00;1.00
6210;DHT22;3138;52.550;13.148;2023-04-24T04:26:24;11.00;1.00
6210;DHT22;3138;52.550;13.148;2023-04-24T04:28:51;10.90;1.00
6210;DHT22;3138;52.550;13.148;2023-04-24T04:31:20;10.90;1.00
6210;DHT22;3138;52.550;13.148;2023-04-24T04:33:47;10.90;1.00
6210;DHT22;3138;52.550;13.148;2023-04-24T04:36:14;10.90;1.00
6210;DHT22;3138;52.550;13.148;2023-04-24T04:38:42;10.80;1.00
6210;DHT22;3138;52.550;13.148;2023-04-24T04:41:10;10.80;1.00
6210;DHT22;3138;52.550;13.148;2023-04-24T04:43:37;10.80;1.00
6210;DHT22;3138;52.550;13.148;2023-04-24T04:46:06;10.90;1.00
6210;DHT22;3138;52.550;13.148;2023-04-24T04:48:35;11.00;1.00
6210;DHT22;3138;52.550;13.148;2023-04-24T04:51:02;11.10;1.00
6210;DHT22;3138;52.550;13.148;2023-04-24T04:53:29;11.20;1.00
6210;DHT22;3138;52.550;13.148;2023-04-24T04:55:56;11.30;1.00
6210;DHT22;3138;52.550;13.148;2023-04-24T04:58:22;11.40;1.00
6210;DHT22;3138;52.550;13.148;2023-04-24T05:00:49;11.50;1.00
6210;DHT22;3138;52.550;13.148;2023-04-24T05:03:16;11.70;99.90
6210;DHT22;3138;52.550;13.148;2023-04-24T05:05:44;12.00;99.90
6210;DHT22;3138;52.550;13.148;2023-04-24T05:08:11;12.10;99.90
6210;DHT22;3138;52.550;13.148;2023-04-24T05:10:38;12.10;1.00
6210;DHT22;3138;52.550;13.148;2023-04-24T05:13:05;12.40;1.00
6210;DHT22;3138;52.550;13.148;2023-04-24T05:15:32;12.50;99.90
6210;DHT22;3138;52.550;13.148;2023-04-24T05:17:59;12.50;1.00
6210;DHT22;3138;52.550;13.148;2023-04-24T05:20:26;12.70;1.00
6210;DHT22;3138;52.550;13.148;2023-04-24T05:22:54;12.90;18.50
6210;DHT22;3138;52.550;13.148;2023-04-24T05:25:21;12.80;1.00
6210;DHT22;3138;52.550;13.148;2023-04-24T05:27:48;12.70;99.90
6210;DHT22;3138;52.550;13.148;2023-04-24T05:30:14;12.60;99.90
6210;DHT22;3138;52.550;13.148;2023-04-24T05:32:41;12.70;99.90
6210;DHT22;3138;52.550;13.148;2023-04-24T05:35:08;12.90;99.90
6210;DHT22;3138;52.550;13.148;2023-04-24T05:37:35;13.00;1.00
6210;DHT22;3138;52.550;13.148;2023-04-24T05:40:04;13.00;1.00
6210;DHT22;3138;52.550;13.148;2023-04-24T05:42:31;13.20;1.00
6210;DHT22;3138;52.550;13.148;2023-04-24T05:44:58;13.30;99.90
6210;DHT22;3138;52.550;13.148;2023-04-24T05:47:25;13.40;1.00
6210;DHT22;3138;52.550;13.148;2023-04-24T05:49:52;13.60;1.00
6210;DHT22;3138;52.550;13.148;2023-04-24T05:52:19;13.80;1.00
6210;DHT22;3138;52.550;13.148;2023-04-24T05:54:46;13.80;1.00
6210;DHT22;3138;52.550;13.148;2023-04-24T05:57:14;14.00;99.90
6210;DHT22;3138;52.550;13.148;2023-04-24T05:59:41;14.00;99.90
6210;DHT22;3138;52.550;13.148;2023-04-24T06:02:08;14.40;27.50
6210;DHT22;3138;52.550;13.148;2023-04-24T06:04:35;14.40;1.00
6210;DHT22;3138;52.550;13.148;2023-04-24T06:07:02;14.60;1.00
6210;DHT22;3138;52.550;13.148;2023-04-24T06:09:28;14.50;99.90
6210;DHT22;3138;52.550;13.148;2023-04-24T06:11:55;14.50;99.90
6210;DHT22;3138;52.550;13.148;2023-04-24T06:14:24;14.70;99.90
6210;DHT22;3138;52.550;13.148;2023-04-24T06:16:51;14.90;81.00
6210;DHT22;3138;52.550;13.148;2023-04-24T06:19:17;14.70;1.00
6210;DHT22;3138;52.550;13.148;2023-04-24T06:21:44;15.10;1.00
6210;DHT22;3138;52.550;13.148;2023-04-24T06:24:14;15.30;1.00
6210;DHT22;3138;52.550;13.148;2023-04-24T06:26:41;15.50;1.00
6210;DHT22;3138;52.550;13.148;2023-04-24T06:29:08;15.50;1.00
6210;DHT22;3138;52.550;13.148;2023-04-24T06:31:36;15.60;99.90
6210;DHT22;3138;52.550;13.148;2023-04-24T06:34:03;15.80;99.90
6210;DHT22;3138;52.550;13.148;2023-04-24T06:36:30;16.00;99.90
6210;DHT22;3138;52.550;13.148;2023-04-24T06:38:59;16.20;99.90
6210;DHT22;3138;52.550;13.148;2023-04-24T06:41:26;16.50;99.90
6210;DHT22;3138;52.550;13.148;2023-04-24T06:43:53;16.30;54.00
6210;DHT22;3138;52.550;13.148;2023-04-24T06:46:20;15.80;2.80
6210;DHT22;3138;52.550;13.148;2023-04-24T06:48:50;15.30;1.00
6210;DHT22;3138;52.550;13.148;2023-04-24T06:51:17;15.20;1.00
6210;DHT22;3138;52.550;13.148;2023-04-24T06:53:44;14.90;1.00
6210;DHT22;3138;52.550;13.148;2023-04-24T06:56:11;15.00;1.00
6210;DHT22;3138;52.550;13.148;2023-04-24T06:58:38;15.10;1.00
6210;DHT22;3138;52.550;13.148;2023-04-24T07:01:05;14.90;1.00
6210;DHT22;3138;52.550;13.148;2023-04-24T07:03:31;15.00;1.00
6210;DHT22;3138;52.550;13.148;2023-04-24T07:06:00;14.90;1.00
6210;DHT22;3138;52.550;13.148;2023-04-24T07:08:26;15.00;1.00
6210;DHT22;3138;52.550;13.148;2023-04-24T07:10:53;15.20;1.00
6210;DHT22;3138;52.550;13.148;2023-04-24T07:13:22;15.70;1.00
6210;DHT22;3138;52.550;13.148;2023-04-24T07:15:49;16.20;1.00
6210;DHT22;3138;52.550;13.148;2023-04-24T07:18:18;16.10;1.00
6210;DHT22;3138;52.550;13.148;2023-04-24T07:20:44;15.80;1.00
6210;DHT22;3138;52.550;13.148;2023-04-24T07:23:13;15.70;1.00
6210;DHT22;3138;52.550;13.148;2023-04-24T07:25:39;15.80;1.00
6210;DHT22;3138;52.550;13.148;2023-04-24T07:28:06;15.70;1.00
6210;DHT22;3138;52.550;13.148;2023-04-24T07:30:34;15.60;1.00
6210;DHT22;3138;52.550;13.148;2023-04-24T07:33:00;16.10;1.00
6210;DHT22;3138;52.550;13.148;2023-04-24T07:35:27;16.60;1.00
6210;DHT22;3138;52.550;13.148;2023-04-24T07:37:54;16.80;1.00
6210;DHT22;3138;52.550;13.148;2023-04-24T07:40:22;16.60;1.00
6210;DHT22;3138;52.550;13.148;2023-04-24T07:42:49;16.30;99.90
6210;DHT22;3138;52.550;13.148;2023-04-24T07:45:16;16.50;99.90
6210;DHT22;3138;52.550;13.148;2023-04-24T07:47:43;17.10;1.00
6210;DHT22;3138;52.550;13.148;2023-04-24T07:50:11;17.30;99.90
6210;DHT22;3138;52.550;13.148;2023-04-24T07:52:39;16.70;99.90
6210;DHT22;3138;52.550;13.148;2023-04-24T07:55:06;16.70;99.90
6210;DHT22;3138;52.550;13.148;2023-04-24T07:57:35;16.70;99.90
6210;DHT22;3138;52.550;13.148;2023-04-24T08:00:03;16.90;99.90
6210;DHT22;3138;52.550;13.148;2023-04-24T08:02:31;17.20;99.90
6210;DHT22;3138;52.550;13.148;2023-04-24T08:04:58;17.20;99.90
6210;DHT22;3138;52.550;13.148;2023-04-24T08:07:25;17.30;99.90
6210;DHT22;3138;52.550;13.148;2023-04-24T08:09:51;17.30;99.90
6210;DHT22;3138;52.550;13.148;2023-04-24T08:12:18;16.90;99.90
6210;DHT22;3138;52.550;13.148;2023-04-24T08:14:46;16.90;99.90
6210;DHT22;3138;52.550;13.148;2023-04-24T08:17:13;17.00;99.90
6210;DHT22;3138;52.550;13.148;2023-04-24T08:19:40;17.30;99.90
6210;DHT22;3138;52.550;13.148;2023-04-24T08:22:13;16.90;99.90
6210;DHT22;3138;52.550;13.148;2023-04-24T08:24:39;17.00;99.90
6210;DHT22;3138;52.550;13.148;2023-04-24T08:27:06;17.90;99.90
6210;DHT22;3138;52.550;13.148;2023-04-24T08:29:33;17.60;99.90
6210;DHT22;3138;52.550;13.148;2023-04-24T08:32:01;17.70;99.90
6210;DHT22;3138;52.550;13.148;2023-04-24T08:34:28;17.80;99.90
6210;DHT22;3138;52.550;13.148;2023-04-24T08:36:55;17.70;99.90
6210;DHT22;3138;52.550;13.148;2023-04-24T08:39:22;17.40;99.90
6210;DHT22;3138;52.550;13.148;2023-04-24T08:41:49;17.30;99.90
6210;DHT22;3138;52.550;13.148;2023-04-24T08:44:17;17.60;99.90
6210;DHT22;3138;52.550;13.148;2023-04-24T08:46:47;17.50;99.90
6210;DHT22;3138;52.550;13.148;2023-04-24T08:49:17;17.50;99.90
6210;DHT22;3138;52.550;13.148;2023-04-24T08:51:45;17.60;99.90
6210;DHT22;3138;52.550;13.148;2023-04-24T08:54:13;17.20;99.90
6210;DHT22;3138;52.550;13.148;2023-04-24T08:56:44;17.30;99.90
6210;DHT22;3138;52.550;13.148;2023-04-24T08:59:11;17.70;99.90
6210;DHT22;3138;52.550;13.148;2023-04-24T09:01:40;17.70;99.90
6210;DHT22;3138;52.550;13.148;2023-04-24T09:04:08;17.50;96.80
6210;DHT22;3138;52.550;13.148;2023-04-24T09:06:37;17.60;99.90
6210;DHT22;3138;52.550;13.148;2023-04-24T09:09:04;17.60;99.80
6210;DHT22;3138;52.550;13.148;2023-04-24T09:11:32;17.40;89.00
6210;DHT22;3138;52.550;13.148;2023-04-24T09:13:59;17.30;82.30
6210;DHT22;3138;52.550;13.148;2023-04-24T09:16:27;17.30;74.50
6210;DHT22;3138;52.550;13.148;2023-04-24T09:18:55;17.30;92.20
6210;DHT22;3138;52.550;13.148;2023-04-24T09:21:22;17.30;82.50
6210;DHT22;3138;52.550;13.148;2023-04-24T09:24:00;17.10;78.80
6210;DHT22;3138;52.550;13.148;2023-04-24T09:26:29;16.90;83.00
6210;DHT22;3138;52.550;13.148;2023-04-24T09:28:58;16.70;90.40
6210;DHT22;3138;52.550;13.148;2023-04-24T09:31:27;16.60;92.00
6210;DHT22;3138;52.550;13.148;2023-04-24T09:33:56;16.40;91.20
6210;DHT22;3138;52.550;13.148;2023-04-24T09:36:30;16.50;99.00
6210;DHT22;3138;52.550;13.148;2023-04-24T09:39:00;16.80;99.90
6210;DHT22;3138;52.550;13.148;2023-04-24T09:41:28;16.80;99.90
6210;DHT22;3138;52.550;13.148;2023-04-24T09:43:56;16.60;99.90
6210;DHT22;3138;52.550;13.148;2023-04-24T09:46:30;16.50;96.00
6210;DHT22;3138;52.550;13.148;2023-04-24T09:49:07;16.90;99.90
6210;DHT22;3138;52.550;13.148;2023-04-24T09:51:36;16.90;99.90
6210;DHT22;3138;52.550;13.148;2023-04-24T09:54:10;16.80;94.70
6210;DHT22;3138;52.550;13.148;2023-04-24T09:56:42;16.80;95.10
6210;DHT22;3138;52.550;13.148;2023-04-24T09:59:10;16.90;99.90
6210;DHT22;3138;52.550;13.148;2023-04-24T10:01:37;17.20;83.50
6210;DHT22;3138;52.550;13.148;2023-04-24T10:04:15;17.60;96.00
6210;DHT22;3138;52.550;13.148;2023-04-24T10:06:42;18.30;99.60
6210;DHT22;3138;52.550;13.148;2023-04-24T10:09:11;18.20;55.20
6210;DHT22;3138;52.550;13.148;2023-04-24T10:11:42;17.80;34.40
6210;DHT22;3138;52.550;13.148;2023-04-24T10:14:12;17.50;11.60
6210;DHT22;3138;52.550;13.148;2023-04-24T10:16:40;17.40;11.10
6210;DHT22;3138;52.550;13.148;2023-04-24T10:19:07;17.10;3.80
6210;DHT22;3138;52.550;13.148;2023-04-24T10:21:34;16.80;9.60
6210;DHT22;3138;52.550;13.148;2023-04-24T10:24:03;16.80;9.20
6210;DHT22;3138;52.550;13.148;2023-04-24T10:26:34;16.70;8.10
6210;DHT22;3138;52.550;13.148;2023-04-24T10:29:05;16.70;19.80
6210;DHT22;3138;52.550;13.148;2023-04-24T10:31:35;16.70;26.60
6210;DHT22;3138;52.550;13.148;2023-04-24T10:34:03;16.70;16.70
6210;DHT22;3138;52.550;13.148;2023-04-24T10:36:31;16.70;20.80
6210;DHT22;3138;52.550;13.148;2023-04-24T10:39:01;16.70;19.90
6210;DHT22;3138;52.550;13.148;2023-04-24T10:41:30;16.80;14.70
6210;DHT22;3138;52.550;13.148;2023-04-24T10:44:08;17.10;35.00
6210;DHT22;3138;52.550;13.148;2023-04-24T10:46:36;17.60;33.10
6210;DHT22;3138;52.550;13.148;2023-04-24T10:49:04;18.10;29.90
6210;DHT22;3138;52.550;13.148;2023-04-24T10:51:49;18.10;25.50
6210;DHT22;3138;52.550;13.148;2023-04-24T10:54:23;18.20;1.00
6210;DHT22;3138;52.550;13.148;2023-04-24T10:56:51;18.20;1.00
6210;DHT22;3138;52.550;13.148;2023-04-24T10:59:25;17.90;1.00
6210;DHT22;3138;52.550;13.148;2023-04-24T11:01:53;17.80;1.00
6210;DHT22;3138;52.550;13.148;2023-04-24T11:04:29;17.60;1.00
6210;DHT22;3138;52.550;13.148;2023-04-24T11:06:57;17.40;1.00
6210;DHT22;3138;52.550;13.148;2023-04-24T11:09:26;17.40;1.00
6210;DHT22;3138;52.550;13.148;2023-04-24T11:12:03;17.40;3.50
6210;DHT22;3138;52.550;13.148;2023-04-24T11:15:01;17.50;1.00
6210;DHT22;3138;52.550;13.148;2023-04-24T11:17:32;18.00;1.00
6210;DHT22;3138;52.550;13.148;2023-04-24T11:20:03;18.10;1.00
6210;DHT22;3138;52.550;13.148;2023-04-24T11:22:33;18.40;1.00
6210;DHT22;3138;52.550;13.148;2023-04-24T11:25:01;18.80;1.00
6210;DHT22;3138;52.550;13.148;2023-04-24T11:27:31;19.10;1.00
6210;DHT22;3138;52.550;13.148;2023-04-24T11:30:02;18.80;1.00
6210;DHT22;3138;52.550;13.148;2023-04-24T11:32:30;19.20;1.00
6210;DHT22;3138;52.550;13.148;2023-04-24T11:34:58;19.60;1.00
6210;DHT22;3138;52.550;13.148;2023-04-24T11:37:27;19.50;1.00
6210;DHT22;3138;52.550;13.148;2023-04-24T11:39:57;19.80;1.00
6210;DHT22;3138;52.550;13.148;2023-04-24T11:42:24;19.70;1.00
6210;DHT22;3138;52.550;13.148;2023-04-24T11:44:52;18.80;1.00
6210;DHT22;3138;52.550;13.148;2023-04-24T11:47:27;18.50;1.00
6210;DHT22;3138;52.550;13.148;2023-04-24T11:49:54;18.40;1.00
6210;DHT22;3138;52.550;13.148;2023-04-24T11:52:21;18.40;1.00
6210;DHT22;3138;52.550;13.148;2023-04-24T11:54:48;18.20;1.00
6210;DHT22;3138;52.550;13.148;2023-04-24T11:57:18;18.00;1.00
6210;DHT22;3138;52.550;13.148;2023-04-24T11:59:45;17.80;1.00
6210;DHT22;3138;52.550;13.148;2023-04-24T12:02:22;17.80;1.00
6210;DHT22;3138;52.550;13.148;2023-04-24T12:04:49;17.80;1.00
6210;DHT22;3138;52.550;13.148;2023-04-24T12:07:16;17.70;1.00
6210;DHT22;3138;52.550;13.148;2023-04-24T12:09:44;17.70;1.00
6210;DHT22;3138;52.550;13.148;2023-04-24T12:12:12;17.70;1.00
6210;DHT22;3138;52.550;13.148;2023-04-24T12:14:49;17.70;1.00
6210;DHT22;3138;52.550;13.148;2023-04-24T12:17:17;18.50;1.00
6210;DHT22;3138;52.550;13.148;2023-04-24T12:19:48;18.60;1.00
6210;DHT22;3138;52.550;13.148;2023-04-24T12:22:16;18.30;1.00
6210;DHT22;3138;52.550;13.148;2023-04-24T12:24:59;17.80;1.00
6210;DHT22;3138;52.550;13.148;2023-04-24T12:27:29;17.50;1.00
6210;DHT22;3138;52.550;13.148;2023-04-24T12:29:57;17.20;1.00
6210;DHT22;3138;52.550;13.148;2023-04-24T12:32:24;17.00;1.00
6210;DHT22;3138;52.550;13.148;2023-04-24T12:34:54;16.60;1.00
6210;DHT22;3138;52.550;13.148;2023-04-24T12:37:23;16.60;1.00
6210;DHT22;3138;52.550;13.148;2023-04-24T12:40:00;16.70;1.00
6210;DHT22;3138;52.550;13.148;2023-04-24T12:42:28;16.90;1.00
6210;DHT22;3138;52.550;13.148;2023-04-24T12:44:57;17.40;1.00
6210;DHT22;3138;52.550;13.148;2023-04-24T12:47:25;17.40;1.00
6210;DHT22;3138;52.550;13.148;2023-04-24T12:49:53;17.50;1.00
6210;DHT22;3138;52.550;13.148;2023-04-24T12:52:21;17.20;1.00
6210;DHT22;3138;52.550;13.148;2023-04-24T12:54:49;17.10;1.00
6210;DHT22;3138;52.550;13.148;2023-04-24T12:57:16;17.00;1.00
6210;DHT22;3138;52.550;13.148;2023-04-24T12:59:43;16.80;1.00
6210;DHT22;3138;52.550;13.148;2023-04-24T13:02:10;16.60;1.00
6210;DHT22;3138;52.550;13.148;2023-04-24T13:04:37;16.60;1.00
6210;DHT22;3138;52.550;13.148;2023-04-24T13:07:06;17.00;1.00
6210;DHT22;3138;52.550;13.148;2023-04-24T13:09:34;16.70;1.00
6210;DHT22;3138;52.550;13.148;2023-04-24T13:12:01;17.00;1.00
6210;DHT22;3138;52.550;13.148;2023-04-24T13:14:28;17.40;1.00
6210;DHT22;3138;52.550;13.148;2023-04-24T13:16:55;18.00;1.00
6210;DHT22;3138;52.550;13.148;2023-04-24T13:19:24;18.00;1.00
6210;DHT22;3138;52.550;13.148;2023-04-24T13:21:51;17.90;1.00
6210;DHT22;3138;52.550;13.148;2023-04-24T13:24:20;17.90;1.00
6210;DHT22;3138;52.550;13.148;2023-04-24T13:26:46;17.70;1.00
6210;DHT22;3138;52.550;13.148;2023-04-24T13:29:13;17.90;1.00
6210;DHT22;3138;52.550;13.148;2023-04-24T13:31:40;17.80;1.00
6210;DHT22;3138;52.550;13.148;2023-04-24T13:34:07;17.70;1.00
6210;DHT22;3138;52.550;13.148;2023-04-24T13:36:34;18.20;1.00
6210;DHT22;3138;52.550;13.148;2023-04-24T13:39:01;18.40;1.00
6210;DHT22;3138;52.550;13.148;2023-04-24T13:41:31;17.80;1.00
6210;DHT22;3138;52.550;13.148;2023-04-24T13:43:58;17.40;1.00
6210;DHT22;3138;52.550;13.148;2023-04-24T13:46:25;17.40;1.00
6210;DHT22;3138;52.550;13.148;2023-04-24T13:48:52;17.40;1.00
6210;DHT22;3138;52.550;13.148;2023-04-24T13:51:19;17.60;1.00
6210;DHT22;3138;52.550;13.148;2023-04-24T13:53:46;18.20;1.00
6210;DHT22;3138;52.550;13.148;2023-04-24T13:56:12;18.40;1.00
6210;DHT22;3138;52.550;13.148;2023-04-24T13:58:41;18.90;1.00
6210;DHT22;3138;52.550;13.148;2023-04-24T14:01:08;18.60;1.00
6210;DHT22;3138;52.550;13.148;2023-04-24T14:03:37;18.20;1.00
6210;DHT22;3138;52.550;13.148;2023-04-24T14:06:04;18.00;1.00
6210;DHT22;3138;52.550;13.148;2023-04-24T14:08:31;18.00;1.00
6210;DHT22;3138;52.550;13.148;2023-04-24T14:10:58;18.10;1.00
6210;DHT22;3138;52.550;13.148;2023-04-24T14:13:25;18.60;1.00
6210;DHT22;3138;52.550;13.148;2023-04-24T14:15:54;18.40;1.00
6210;DHT22;3138;52.550;13.148;2023-04-24T14:18:21;18.20;1.00
6210;DHT22;3138;52.550;13.148;2023-04-24T14:20:48;18.20;1.00
6210;DHT22;3138;52.550;13.148;2023-04-24T14:23:15;18.50;1.00
6210;DHT22;3138;52.550;13.148;2023-04-24T14:25:42;18.60;1.00
6210;DHT22;3138;52.550;13.148;2023-04-24T14:28:09;18.70;1.00
6210;DHT22;3138;52.550;13.148;2023-04-24T14:30:36;18.40;1.00
6210;DHT22;3138;52.550;13.148;2023-04-24T14:33:07;17.90;1.00
6210;DHT22;3138;52.550;13.148;2023-04-24T14:35:34;18.20;1.00
6210;DHT22;3138;52.550;13.148;2023-04-24T14:38:01;18.10;1.00
6210;DHT22;3138;52.550;13.148;2023-04-24T14:40:28;17.80;1.00
6210;DHT22;3138;52.550;13.148;2023-04-24T14:42:55;17.80;1.00
6210;DHT22;3138;52.550;13.148;2023-04-24T14:45:23;17.70;1.00
6210;DHT22;3138;52.550;13.148;2023-04-24T14:47:50;17.50;1.00
6210;DHT22;3138;52.550;13.148;2023-04-24T14:50:18;17.30;1.00
6210;DHT22;3138;52.550;13.148;2023-04-24T14:52:46;17.00;1.00
6210;DHT22;3138;52.550;13.148;2023-04-24T14:55:13;17.10;1.00
6210;DHT22;3138;52.550;13.148;2023-04-24T14:57:41;17.40;1.00
6210;DHT22;3138;52.550;13.148;2023-04-24T15:00:09;17.80;1.00
6210;DHT22;3138;52.550;13.148;2023-04-24T15:02:36;17.70;1.00
6210;DHT22;3138;52.550;13.148;2023-04-24T15:05:07;17.20;1.00
6210;DHT22;3138;52.550;13.148;2023-04-24T15:07:36;17.00;1.00
6210;DHT22;3138;52.550;13.148;2023-04-24T15:10:03;16.50;1.00
6210;DHT22;3138;52.550;13.148;2023-04-24T15:12:30;16.40;1.00
6210;DHT22;3138;52.550;13.148;2023-04-24T15:14:58;16.40;1.00
6210;DHT22;3138;52.550;13.148;2023-04-24T15:17:25;16.30;1.00
6210;DHT22;3138;52.550;13.148;2023-04-24T15:19:52;16.30;1.00
6210;DHT22;3138;52.550;13.148;2023-04-24T15:22:19;16.30;1.00
6210;DHT22;3138;52.550;13.148;2023-04-24T15:24:47;16.10;1.00
6210;DHT22;3138;52.550;13.148;2023-04-24T15:27:14;16.10;1.00
6210;DHT22;3138;52.550;13.148;2023-04-24T15:29:41;16.10;1.00
6210;DHT22;3138;52.550;13.148;2023-04-24T15:32:08;16.30;1.00
6210;DHT22;3138;52.550;13.148;2023-04-24T15:34:35;16.50;1.00
6210;DHT22;3138;52.550;13.148;2023-04-24T15:37:02;16.50;1.00
6210;DHT22;3138;52.550;13.148;2023-04-24T15:39:29;16.70;1.00
6210;DHT22;3138;52.550;13.148;2023-04-24T15:41:57;17.10;1.00
6210;DHT22;3138;52.550;13.148;2023-04-24T15:44:24;17.40;1.00
6210;DHT22;3138;52.550;13.148;2023-04-24T15:46:51;17.40;1.00
6210;DHT22;3138;52.550;13.148;2023-04-24T15:49:18;17.10;1.00
6210;DHT22;3138;52.550;13.148;2023-04-24T15:51:45;17.10;1.00
6210;DHT22;3138;52.550;13.148;2023-04-24T15:54:11;17.00;1.00
6210;DHT22;3138;52.550;13.148;2023-04-24T15:56:38;17.00;1.00
6210;DHT22;3138;52.550;13.148;2023-04-24T15:59:07;16.80;1.00